createdAt,value
2024-03-26T00:00:33.591Z,21.52
2024-03-26T00:01:41.265Z,21.54
2024-03-26T00:02:46.727Z,21.52
2024-03-26T00:03:52.126Z,21.53
2024-03-26T00:04:57.501Z,21.52
2024-03-26T00:06:02.913Z,21.51
2024-03-26T00:07:08.321Z,21.5
2024-03-26T00:08:13.700Z,21.5
2024-03-26T00:09:19.160Z,21.49
2024-03-26T00:10:24.536Z,21.5
2024-03-26T00:11:29.962Z,21.5
2024-03-26T00:12:35.405Z,21.51
2024-03-26T00:13:40.827Z,21.51
2024-03-26T00:14:46.247Z,21.5
2024-03-26T00:15:51.651Z,21.5
2024-03-26T00:16:57.041Z,21.51
2024-03-26T00:18:02.486Z,21.51
2024-03-26T00:19:07.875Z,21.5
2024-03-26T00:20:13.319Z,21.48
2024-03-26T00:21:21.289Z,21.49
2024-03-26T00:22:27.059Z,21.48
2024-03-26T00:23:32.500Z,21.46
2024-03-26T00:24:37.922Z,21.46
2024-03-26T00:25:43.319Z,21.46
2024-03-26T00:26:48.678Z,21.45
2024-03-26T00:27:54.084Z,21.46
2024-03-26T00:28:59.505Z,21.46
2024-03-26T00:30:04.944Z,21.46
2024-03-26T00:31:10.376Z,21.48
2024-03-26T00:32:15.762Z,21.48
2024-03-26T00:33:21.164Z,21.47
2024-03-26T00:34:26.597Z,21.45
2024-03-26T00:35:32.087Z,21.46
2024-03-26T00:36:37.470Z,21.45
2024-03-26T00:37:42.908Z,21.44
2024-03-26T00:38:48.332Z,21.43
2024-03-26T00:39:53.721Z,21.43
2024-03-26T00:40:59.119Z,21.42
2024-03-26T00:42:04.545Z,21.42
2024-03-26T00:43:09.948Z,21.42
2024-03-26T00:44:15.324Z,21.42
2024-03-26T00:45:20.718Z,21.44
2024-03-26T00:46:26.144Z,21.44
2024-03-26T00:47:31.578Z,21.43
2024-03-26T00:48:37.041Z,21.43
2024-03-26T00:49:42.446Z,21.43
2024-03-26T00:50:47.853Z,21.42
2024-03-26T00:51:53.279Z,21.41
2024-03-26T00:52:58.673Z,21.4
2024-03-26T00:54:04.075Z,21.41
2024-03-26T00:55:09.484Z,21.41
2024-03-26T00:56:14.959Z,21.41
2024-03-26T00:57:20.429Z,21.41
2024-03-26T00:58:25.869Z,21.4
2024-03-26T00:59:31.275Z,21.41
2024-03-26T01:00:36.656Z,21.4
2024-03-26T01:01:42.074Z,21.41
2024-03-26T01:02:47.474Z,21.4
2024-03-26T01:03:52.874Z,21.4
2024-03-26T01:04:58.288Z,21.4
2024-03-26T01:06:03.654Z,21.41
2024-03-26T01:07:09.051Z,21.4
2024-03-26T01:08:14.471Z,21.41
2024-03-26T01:09:19.874Z,21.41
2024-03-26T01:10:25.267Z,21.4
2024-03-26T01:11:30.690Z,21.41
2024-03-26T01:12:36.105Z,21.42
2024-03-26T01:13:41.502Z,21.41
2024-03-26T01:14:46.923Z,21.41
2024-03-26T01:15:52.317Z,21.42
2024-03-26T01:16:57.728Z,21.41
2024-03-26T01:18:03.179Z,21.4
2024-03-26T01:19:08.586Z,21.41
2024-03-26T01:20:14.019Z,21.42
2024-03-26T01:21:22.061Z,21.4
2024-03-26T01:22:28.555Z,21.4
2024-03-26T01:23:33.988Z,21.4
2024-03-26T01:24:39.389Z,21.4
2024-03-26T01:25:44.806Z,21.4
2024-03-26T01:26:50.220Z,21.4
2024-03-26T01:27:55.635Z,21.4
2024-03-26T01:29:01.093Z,21.4
2024-03-26T01:30:06.537Z,21.4
2024-03-26T01:31:11.922Z,21.41
2024-03-26T01:32:17.574Z,21.41
2024-03-26T01:33:22.981Z,21.4
2024-03-26T01:34:28.392Z,21.39
2024-03-26T01:35:33.794Z,21.37
2024-03-26T01:36:39.212Z,21.36
2024-03-26T01:37:44.635Z,21.35
2024-03-26T01:38:50.044Z,21.34
2024-03-26T01:39:55.449Z,21.33
2024-03-26T01:41:00.845Z,21.34
2024-03-26T01:42:06.301Z,21.33
2024-03-26T01:43:11.712Z,21.34
2024-03-26T01:44:17.126Z,21.33
2024-03-26T01:45:22.498Z,21.32
2024-03-26T01:46:27.884Z,21.33
2024-03-26T01:47:33.285Z,21.34
2024-03-26T01:48:38.670Z,21.34
2024-03-26T01:49:44.081Z,21.34
2024-03-26T01:50:49.445Z,21.34
2024-03-26T01:51:54.851Z,21.33
2024-03-26T01:53:00.256Z,21.33
2024-03-26T01:54:05.687Z,21.33
2024-03-26T01:55:11.096Z,21.32
2024-03-26T01:56:16.518Z,21.3
2024-03-26T01:57:21.995Z,21.33
2024-03-26T01:58:27.428Z,21.33
2024-03-26T01:59:32.823Z,21.33
2024-03-26T02:00:38.235Z,21.34
2024-03-26T02:01:43.646Z,21.34
2024-03-26T02:02:49.157Z,21.32
2024-03-26T02:03:54.556Z,21.32
2024-03-26T02:04:59.954Z,21.32
2024-03-26T02:06:05.385Z,21.32
2024-03-26T02:07:10.768Z,21.33
2024-03-26T02:08:16.262Z,21.33
2024-03-26T02:09:21.746Z,21.32
2024-03-26T02:10:27.185Z,21.32
2024-03-26T02:11:32.603Z,21.33
2024-03-26T02:12:38.036Z,21.33
2024-03-26T02:13:43.445Z,21.35
2024-03-26T02:14:48.864Z,21.35
2024-03-26T02:15:54.311Z,21.33
2024-03-26T02:16:59.708Z,21.33
2024-03-26T02:18:05.113Z,21.32
2024-03-26T02:19:10.523Z,21.32
2024-03-26T02:20:15.938Z,21.32
2024-03-26T02:21:21.373Z,21.31
2024-03-26T02:22:26.784Z,21.29
2024-03-26T02:23:32.209Z,21.28
2024-03-26T02:24:37.618Z,21.28
2024-03-26T02:25:43.038Z,21.29
2024-03-26T02:26:48.495Z,21.28
2024-03-26T02:27:53.909Z,21.27
2024-03-26T02:28:59.378Z,21.29
2024-03-26T02:30:04.798Z,21.28
2024-03-26T02:31:10.227Z,21.26
2024-03-26T02:32:15.628Z,21.26
2024-03-26T02:33:21.033Z,21.25
2024-03-26T02:34:26.420Z,21.25
2024-03-26T02:35:31.861Z,21.26
2024-03-26T02:36:37.261Z,21.26
2024-03-26T02:37:42.694Z,21.25
2024-03-26T02:38:48.160Z,21.25
2024-03-26T02:39:53.591Z,21.27
2024-03-26T02:40:59.025Z,21.25
2024-03-26T02:42:04.429Z,21.24
2024-03-26T02:43:09.817Z,21.27
2024-03-26T02:44:15.231Z,21.28
2024-03-26T02:45:20.693Z,21.25
2024-03-26T02:46:26.088Z,21.25
2024-03-26T02:47:31.510Z,21.25
2024-03-26T02:48:36.948Z,21.26
2024-03-26T02:49:42.341Z,21.26
2024-03-26T02:50:47.750Z,21.27
2024-03-26T02:51:53.228Z,21.28
2024-03-26T02:52:58.663Z,21.29
2024-03-26T02:54:04.098Z,21.28
2024-03-26T02:55:09.495Z,21.29
2024-03-26T02:56:14.916Z,21.27
2024-03-26T02:57:20.325Z,21.27
2024-03-26T02:58:25.769Z,21.26
2024-03-26T02:59:31.325Z,21.26
2024-03-26T03:00:36.726Z,21.26
2024-03-26T03:01:42.168Z,21.25
2024-03-26T03:02:47.593Z,21.25
2024-03-26T03:03:53.056Z,21.26
2024-03-26T03:04:58.448Z,21.26
2024-03-26T03:06:04.005Z,21.26
2024-03-26T03:07:09.393Z,21.26
2024-03-26T03:08:14.801Z,21.23
2024-03-26T03:09:20.222Z,21.22
2024-03-26T03:10:25.664Z,21.23
2024-03-26T03:11:31.051Z,21.23
2024-03-26T03:12:36.465Z,21.23
2024-03-26T03:13:41.877Z,21.23
2024-03-26T03:14:47.332Z,21.24
2024-03-26T03:15:52.809Z,21.24
2024-03-26T03:16:58.215Z,21.24
2024-03-26T03:18:03.609Z,21.23
2024-03-26T03:19:09.028Z,21.23
2024-03-26T03:20:14.487Z,21.23
2024-03-26T03:21:19.895Z,21.21
2024-03-26T03:22:25.297Z,21.21
2024-03-26T03:23:30.700Z,21.2
2024-03-26T03:24:36.118Z,21.21
2024-03-26T03:25:41.526Z,21.2
2024-03-26T03:26:46.958Z,21.2
2024-03-26T03:27:52.415Z,21.19
2024-03-26T03:28:57.807Z,21.18
2024-03-26T03:30:03.231Z,21.18
2024-03-26T03:31:08.639Z,21.18
2024-03-26T03:32:14.083Z,21.17
2024-03-26T03:33:19.522Z,21.19
2024-03-26T03:34:24.909Z,21.19
2024-03-26T03:35:30.378Z,21.2
2024-03-26T03:36:35.775Z,21.2
2024-03-26T03:37:41.166Z,21.18
2024-03-26T03:38:47.660Z,21.19
2024-03-26T03:39:53.129Z,21.19
2024-03-26T03:40:58.542Z,21.19
2024-03-26T03:42:04.107Z,21.18
2024-03-26T03:43:09.562Z,21.17
2024-03-26T03:44:15.111Z,21.17
2024-03-26T03:45:20.534Z,21.18
2024-03-26T03:46:25.978Z,21.16
2024-03-26T03:47:31.399Z,21.17
2024-03-26T03:48:36.799Z,21.17
2024-03-26T03:49:42.182Z,21.16
2024-03-26T03:50:47.639Z,21.15
2024-03-26T03:51:53.118Z,21.13
2024-03-26T03:52:58.519Z,21.12
2024-03-26T03:54:04.069Z,21.13
2024-03-26T03:55:09.486Z,21.12
2024-03-26T03:56:17.946Z,21.14
2024-03-26T03:57:23.363Z,21.15
2024-03-26T03:58:28.812Z,21.14
2024-03-26T03:59:34.223Z,21.16
2024-03-26T04:00:39.600Z,21.14
2024-03-26T04:01:45.025Z,21.14
2024-03-26T04:02:50.438Z,21.15
2024-03-26T04:03:55.879Z,21.17
2024-03-26T04:05:01.290Z,21.18
2024-03-26T04:06:06.752Z,21.18
2024-03-26T04:07:12.149Z,21.18
2024-03-26T04:08:17.565Z,21.19
2024-03-26T04:09:22.955Z,21.19
2024-03-26T04:10:28.385Z,21.19
2024-03-26T04:11:33.830Z,21.18
2024-03-26T04:12:39.296Z,21.18
2024-03-26T04:13:44.742Z,21.19
2024-03-26T04:14:50.165Z,21.19
2024-03-26T04:15:55.565Z,21.18
2024-03-26T04:17:00.960Z,21.18
2024-03-26T04:18:06.427Z,21.19
2024-03-26T04:19:11.877Z,21.18
2024-03-26T04:20:17.275Z,21.19
2024-03-26T04:21:22.685Z,21.19
2024-03-26T04:22:28.118Z,21.19
2024-03-26T04:23:33.613Z,21.19
2024-03-26T04:24:39.060Z,21.2
2024-03-26T04:25:44.449Z,21.2
2024-03-26T04:26:49.871Z,21.2
2024-03-26T04:27:55.342Z,21.2
2024-03-26T04:29:00.735Z,21.2
2024-03-26T04:30:06.155Z,21.21
2024-03-26T04:31:11.600Z,21.21
2024-03-26T04:32:17.024Z,21.21
2024-03-26T04:33:22.481Z,21.22
2024-03-26T04:34:27.873Z,21.23
2024-03-26T04:35:33.328Z,21.22
2024-03-26T04:36:38.726Z,21.22
2024-03-26T04:37:44.137Z,21.22
2024-03-26T04:38:49.560Z,21.23
2024-03-26T04:39:55.034Z,21.23
2024-03-26T04:41:00.443Z,21.25
2024-03-26T04:42:05.864Z,21.24
2024-03-26T04:43:12.251Z,21.23
2024-03-26T04:44:17.652Z,21.24
2024-03-26T04:45:24.120Z,21.26
2024-03-26T04:46:29.535Z,21.25
2024-03-26T04:47:34.982Z,21.26
2024-03-26T04:48:40.388Z,21.26
2024-03-26T04:49:45.786Z,21.25
2024-03-26T04:50:51.188Z,21.26
2024-03-26T04:51:56.700Z,21.26
2024-03-26T04:53:02.149Z,21.26
2024-03-26T04:54:07.609Z,21.26
2024-03-26T04:55:12.984Z,21.24
2024-03-26T04:56:18.415Z,21.26
2024-03-26T04:57:23.807Z,21.24
2024-03-26T04:58:29.207Z,21.3
2024-03-26T04:59:34.599Z,21.34
2024-03-26T05:00:40.017Z,21.37
2024-03-26T05:01:45.429Z,21.34
2024-03-26T05:02:50.893Z,21.3
2024-03-26T05:03:56.392Z,21.26
2024-03-26T05:05:01.790Z,21.22
2024-03-26T05:06:07.193Z,21.23
2024-03-26T05:07:12.723Z,21.22
2024-03-26T05:08:18.135Z,21.22
2024-03-26T05:09:23.539Z,21.22
2024-03-26T05:10:28.937Z,21.25
2024-03-26T05:11:34.335Z,21.3
2024-03-26T05:12:39.790Z,21.33
2024-03-26T05:13:45.184Z,21.36
2024-03-26T05:14:50.622Z,21.43
2024-03-26T05:15:56.224Z,21.5
2024-03-26T05:17:01.613Z,21.58
2024-03-26T05:18:07.047Z,21.66
2024-03-26T05:19:14.700Z,21.73
2024-03-26T05:20:20.162Z,21.8
2024-03-26T05:21:25.610Z,21.86
2024-03-26T05:22:31.035Z,21.91
2024-03-26T05:23:36.464Z,21.92
2024-03-26T05:24:41.871Z,21.95
2024-03-26T05:25:47.275Z,21.98
2024-03-26T05:26:52.716Z,22.02
2024-03-26T05:27:58.147Z,22.03
2024-03-26T05:29:03.648Z,22.05
2024-03-26T05:30:09.061Z,22.07
2024-03-26T05:31:14.470Z,22.06
2024-03-26T05:32:22.196Z,22.08
2024-03-26T05:33:27.599Z,22.09
2024-03-26T05:34:33.037Z,22.11
2024-03-26T05:35:38.458Z,22.12
2024-03-26T05:36:43.824Z,22.13
2024-03-26T05:37:49.231Z,22.13
2024-03-26T05:38:54.786Z,22.12
2024-03-26T05:40:00.241Z,22.11
2024-03-26T05:41:05.662Z,22.08
2024-03-26T05:42:11.075Z,22.1
2024-03-26T05:43:16.522Z,22.13
2024-03-26T05:44:21.939Z,22.14
2024-03-26T05:45:27.420Z,22.13
2024-03-26T05:46:32.828Z,22.1
2024-03-26T05:47:38.221Z,22.09
2024-03-26T05:48:43.660Z,22.08
2024-03-26T05:49:49.064Z,22.06
2024-03-26T05:50:54.483Z,22.05
2024-03-26T05:51:59.876Z,22.02
2024-03-26T05:53:05.257Z,22.01
2024-03-26T05:54:10.693Z,21.99
2024-03-26T05:55:16.092Z,21.98
2024-03-26T05:56:21.517Z,21.96
2024-03-26T05:57:26.917Z,21.93
2024-03-26T05:58:32.343Z,21.92
2024-03-26T05:59:37.739Z,21.89
2024-03-26T06:00:43.158Z,21.88
2024-03-26T06:01:48.567Z,21.86
2024-03-26T06:02:53.988Z,21.85
2024-03-26T06:04:01.351Z,21.83
2024-03-26T06:05:08.006Z,21.81
2024-03-26T06:06:13.407Z,21.8
2024-03-26T06:07:18.926Z,21.79
2024-03-26T06:08:24.368Z,21.77
2024-03-26T06:09:29.821Z,21.76
2024-03-26T06:10:35.220Z,21.74
2024-03-26T06:11:40.792Z,21.73
2024-03-26T06:12:46.520Z,21.71
2024-03-26T06:13:51.907Z,21.7
2024-03-26T06:14:57.295Z,21.68
2024-03-26T06:16:02.719Z,21.66
2024-03-26T06:17:08.113Z,21.65
2024-03-26T06:18:13.534Z,21.63
2024-03-26T06:19:18.966Z,21.63
2024-03-26T06:20:24.349Z,21.61
2024-03-26T06:21:29.762Z,21.61
2024-03-26T06:22:35.175Z,21.6
2024-03-26T06:23:40.600Z,21.59
2024-03-26T06:24:46.005Z,21.59
2024-03-26T06:25:51.555Z,21.58
2024-03-26T06:26:56.960Z,21.57
2024-03-26T06:28:02.399Z,21.57
2024-03-26T06:29:07.799Z,21.56
2024-03-26T06:30:13.275Z,21.56
2024-03-26T06:31:18.690Z,21.56
2024-03-26T06:32:24.086Z,21.56
2024-03-26T06:33:29.614Z,21.57
2024-03-26T06:34:37.293Z,21.56
2024-03-26T06:35:42.672Z,21.55
2024-03-26T06:36:48.050Z,21.54
2024-03-26T06:37:53.468Z,21.53
2024-03-26T06:38:58.866Z,21.52
2024-03-26T06:40:04.259Z,21.52
2024-03-26T06:41:09.709Z,21.52
2024-03-26T06:42:15.123Z,21.52
2024-03-26T06:43:20.569Z,21.51
2024-03-26T06:44:25.984Z,21.5
2024-03-26T06:45:31.385Z,21.5
2024-03-26T06:46:39.135Z,21.49
2024-03-26T06:47:44.566Z,21.48
2024-03-26T06:48:49.963Z,21.5
2024-03-26T06:49:55.360Z,21.51
2024-03-26T06:51:00.757Z,21.5
2024-03-26T06:52:06.186Z,21.52
2024-03-26T06:53:11.577Z,21.54
2024-03-26T06:54:16.985Z,21.54
2024-03-26T06:55:22.435Z,21.57
2024-03-26T06:56:27.827Z,21.6
2024-03-26T06:57:33.214Z,21.66
2024-03-26T06:58:38.618Z,21.7
2024-03-26T06:59:44.120Z,21.76
2024-03-26T07:00:49.508Z,21.78
2024-03-26T07:01:55.006Z,21.81
2024-03-26T07:03:00.383Z,21.82
2024-03-26T07:04:05.826Z,21.85
2024-03-26T07:05:11.201Z,21.86
2024-03-26T07:06:16.601Z,21.87
2024-03-26T07:07:21.971Z,21.86
2024-03-26T07:08:27.329Z,21.87
2024-03-26T07:09:32.765Z,21.87
2024-03-26T07:10:38.291Z,21.87
2024-03-26T07:11:43.785Z,21.87
2024-03-26T07:12:49.183Z,21.86
2024-03-26T07:13:55.252Z,21.84
2024-03-26T07:15:00.684Z,21.84
2024-03-26T07:16:06.145Z,21.83
2024-03-26T07:17:11.510Z,21.82
2024-03-26T07:18:16.902Z,21.8
2024-03-26T07:19:22.319Z,21.79
2024-03-26T07:20:27.740Z,21.79
2024-03-26T07:21:33.233Z,21.78
2024-03-26T07:22:38.620Z,21.77
2024-03-26T07:23:43.985Z,21.75
2024-03-26T07:24:49.406Z,21.74
2024-03-26T07:25:54.832Z,21.73
2024-03-26T07:27:00.200Z,21.72
2024-03-26T07:28:05.555Z,21.71
2024-03-26T07:29:10.950Z,21.69
2024-03-26T07:30:16.329Z,21.68
2024-03-26T07:31:21.777Z,21.67
2024-03-26T07:32:27.152Z,21.66
2024-03-26T07:33:32.532Z,21.64
2024-03-26T07:34:37.909Z,21.65
2024-03-26T07:35:43.377Z,21.63
2024-03-26T07:36:48.769Z,21.64
2024-03-26T07:37:54.212Z,21.61
2024-03-26T07:38:59.632Z,21.62
2024-03-26T07:40:05.061Z,21.6
2024-03-26T07:41:10.553Z,21.6
2024-03-26T07:42:16.065Z,21.6
2024-03-26T07:43:24.186Z,21.6
2024-03-26T07:44:29.976Z,21.6
2024-03-26T07:45:35.346Z,21.6
2024-03-26T07:46:40.715Z,21.6
2024-03-26T07:47:46.118Z,21.59
2024-03-26T07:48:51.564Z,21.6
2024-03-26T07:49:57.032Z,21.6
2024-03-26T07:51:02.679Z,21.59
2024-03-26T07:52:08.139Z,21.59
2024-03-26T07:53:13.698Z,21.6
2024-03-26T07:54:19.115Z,21.6
2024-03-26T07:55:24.605Z,21.57
2024-03-26T07:56:30.166Z,21.57
2024-03-26T07:57:35.572Z,21.56
2024-03-26T07:58:41.196Z,21.55
2024-03-26T07:59:46.715Z,21.53
2024-03-26T08:00:52.332Z,21.51
2024-03-26T08:01:59.918Z,21.5
2024-03-26T08:03:05.394Z,21.5
2024-03-26T08:04:10.863Z,21.49
2024-03-26T08:05:16.248Z,21.49
2024-03-26T08:06:21.717Z,21.48
2024-03-26T08:07:27.170Z,21.48
2024-03-26T08:08:32.681Z,21.47
2024-03-26T08:09:38.225Z,21.46
2024-03-26T08:10:45.895Z,21.45
2024-03-26T08:11:51.520Z,21.48
2024-03-26T08:12:57.197Z,21.48
2024-03-26T08:14:02.565Z,21.46
2024-03-26T08:15:07.994Z,21.45
2024-03-26T08:16:13.419Z,21.46
2024-03-26T08:17:18.981Z,21.43
2024-03-26T08:18:24.498Z,21.42
2024-03-26T08:19:30.434Z,21.41
2024-03-26T08:20:37.282Z,21.41
2024-03-26T08:21:42.664Z,21.4
2024-03-26T08:22:48.159Z,21.41
2024-03-26T08:23:53.595Z,21.42
2024-03-26T08:24:59.097Z,21.41
2024-03-26T08:26:04.736Z,21.41
2024-03-26T08:27:10.498Z,21.4
2024-03-26T08:28:15.959Z,21.38
2024-03-26T08:29:21.777Z,21.37
2024-03-26T08:30:27.299Z,21.36
2024-03-26T08:31:32.869Z,21.35
2024-03-26T08:32:38.441Z,21.36
2024-03-26T08:33:44.166Z,21.35
2024-03-26T08:34:49.519Z,21.36
2024-03-26T08:35:54.933Z,21.34
2024-03-26T08:37:00.532Z,21.34
2024-03-26T08:38:08.143Z,21.36
2024-03-26T08:39:13.514Z,21.35
2024-03-26T08:40:18.898Z,21.37
2024-03-26T08:41:24.265Z,21.35
2024-03-26T08:42:29.649Z,21.35
2024-03-26T08:43:35.076Z,21.34
2024-03-26T08:44:40.557Z,21.32
2024-03-26T08:45:45.945Z,21.3
2024-03-26T08:46:51.316Z,21.3
2024-03-26T08:47:56.782Z,21.3
2024-03-26T08:49:02.287Z,21.28
2024-03-26T08:50:09.875Z,21.28
2024-03-26T08:51:15.291Z,21.29
2024-03-26T08:52:20.684Z,21.28
2024-03-26T08:53:26.080Z,21.28
2024-03-26T08:54:31.471Z,21.29
2024-03-26T08:55:36.859Z,21.27
2024-03-26T08:56:42.284Z,21.26
2024-03-26T08:57:47.677Z,21.28
2024-03-26T08:58:53.059Z,21.28
2024-03-26T08:59:58.415Z,21.26
2024-03-26T09:01:03.861Z,21.28
2024-03-26T09:02:09.266Z,21.28
2024-03-26T09:03:14.672Z,21.26
2024-03-26T09:04:20.504Z,21.27
2024-03-26T09:05:29.787Z,21.3
2024-03-26T09:06:35.190Z,21.31
2024-03-26T09:07:40.591Z,21.31
2024-03-26T09:08:45.963Z,21.31
2024-03-26T09:09:51.328Z,21.29
2024-03-26T09:10:56.703Z,21.27
2024-03-26T09:12:02.078Z,21.31
2024-03-26T12:10:49.127Z,21.14
2024-03-26T12:11:54.484Z,21.13
2024-03-26T12:12:59.962Z,21.12
2024-03-26T12:14:05.384Z,21.12
2024-03-26T12:15:10.758Z,21.12
2024-03-26T12:16:20.204Z,21.12
2024-03-26T12:17:25.702Z,21.12
2024-03-26T12:18:31.075Z,21.11
2024-03-26T12:19:36.445Z,21.12
2024-03-26T12:20:41.852Z,21.13
2024-03-26T12:21:47.419Z,21.13
2024-03-26T12:22:52.768Z,21.13
2024-03-26T12:23:58.168Z,21.13
2024-03-26T12:25:03.598Z,21.14
2024-03-26T12:26:09.031Z,21.16
2024-03-26T12:27:14.511Z,21.17
2024-03-26T12:28:19.963Z,21.18
2024-03-26T12:29:25.341Z,21.17
2024-03-26T12:30:30.729Z,21.16
2024-03-26T12:31:36.385Z,21.14
2024-03-26T12:32:41.753Z,21.14
2024-03-26T12:33:47.520Z,21.12
2024-03-26T12:34:53.331Z,21.11
2024-03-26T12:35:58.691Z,21.1
2024-03-26T12:37:04.101Z,21.11
2024-03-26T12:38:09.480Z,21.11
2024-03-26T12:39:14.851Z,21.1
2024-03-26T12:40:21.242Z,21.1
2024-03-26T12:41:26.644Z,21.09
2024-03-26T12:42:32.007Z,21.09
2024-03-26T12:43:37.382Z,21.08
2024-03-26T12:44:42.751Z,21.08
2024-03-26T12:45:48.178Z,21.08
2024-03-26T12:46:53.575Z,21.08
2024-03-26T12:47:58.973Z,21.07
2024-03-26T12:49:04.438Z,21.07
2024-03-26T12:50:09.820Z,21.08
2024-03-26T12:51:15.205Z,21.07
2024-03-26T12:52:20.591Z,21.07
2024-03-26T12:53:25.954Z,21.07
2024-03-26T12:54:31.386Z,21.07
2024-03-26T12:55:36.796Z,21.07
2024-03-26T12:56:42.169Z,21.05
2024-03-26T12:57:47.566Z,21.04
2024-03-26T12:58:52.950Z,21.08
2024-03-26T12:59:58.298Z,21.12
2024-03-26T13:01:03.701Z,21.15
2024-03-26T13:02:09.243Z,21.17
2024-03-26T13:03:14.594Z,21.2
2024-03-26T13:04:19.977Z,21.22
2024-03-26T13:05:25.389Z,21.24
2024-03-26T13:06:30.776Z,21.25
2024-03-26T13:07:36.135Z,21.27
2024-03-26T13:08:41.509Z,21.28
2024-03-26T13:09:46.928Z,21.29
2024-03-26T13:10:52.329Z,21.31
2024-03-26T13:11:57.758Z,21.33
2024-03-26T13:13:03.105Z,21.33
2024-03-26T13:14:08.486Z,21.33
2024-03-26T13:15:13.928Z,21.35
2024-03-26T13:16:19.333Z,21.36
2024-03-26T13:17:24.806Z,21.36
2024-03-26T13:18:30.299Z,21.37
2024-03-26T13:19:35.735Z,21.37
2024-03-26T13:20:41.127Z,21.37
2024-03-26T13:21:46.551Z,21.37
2024-03-26T13:22:51.937Z,21.39
2024-03-26T13:23:57.318Z,21.38
2024-03-26T13:25:02.741Z,21.39
2024-03-26T13:26:08.164Z,21.4
2024-03-26T13:27:13.558Z,21.4
2024-03-26T13:28:18.974Z,21.41
2024-03-26T13:29:24.352Z,21.41
2024-03-26T13:30:34.263Z,21.43
2024-03-26T13:31:49.754Z,21.46
2024-03-26T13:32:55.145Z,21.46
2024-03-26T13:34:00.526Z,21.48
2024-03-26T13:35:05.910Z,21.49
2024-03-26T13:36:11.289Z,21.51
2024-03-26T13:37:17.012Z,21.54
2024-03-26T13:38:22.673Z,21.55
2024-03-26T13:39:28.045Z,21.56
2024-03-26T13:40:40.821Z,21.58
2024-03-26T13:42:03.412Z,21.58
2024-03-26T13:43:08.935Z,21.59
2024-03-26T13:44:14.352Z,21.6
2024-03-26T13:45:19.736Z,21.61
2024-03-26T13:46:25.420Z,21.65
2024-03-26T13:47:30.900Z,21.66
2024-03-26T13:48:36.463Z,21.68
2024-03-26T13:49:41.979Z,21.68
2024-03-26T13:50:47.587Z,21.71
2024-03-26T13:51:53.134Z,21.73
2024-03-26T13:52:58.594Z,21.75
2024-03-26T13:54:04.045Z,21.76
2024-03-26T13:55:09.548Z,21.77
2024-03-26T13:56:14.939Z,21.79
2024-03-26T13:57:20.344Z,21.78
2024-03-26T13:58:25.739Z,21.78
2024-03-26T13:59:31.224Z,21.79
2024-03-26T14:00:36.684Z,21.79
2024-03-26T14:01:42.150Z,21.79
2024-03-26T14:02:47.536Z,21.77
2024-03-26T14:03:52.987Z,21.75
2024-03-26T14:04:58.415Z,21.74
2024-03-26T14:06:04.043Z,21.73
2024-03-26T14:07:09.484Z,21.71
2024-03-26T14:08:14.842Z,21.71
2024-03-26T14:09:24.950Z,21.71
2024-03-26T14:10:30.332Z,21.71
2024-03-26T14:11:35.830Z,21.71
2024-03-26T14:12:41.187Z,21.7
2024-03-26T14:13:47.882Z,21.71
2024-03-26T14:14:54.594Z,21.73
2024-03-26T14:16:00.058Z,21.73
2024-03-26T14:17:05.439Z,21.74
2024-03-26T14:18:10.807Z,21.76
2024-03-26T14:19:16.247Z,21.75
2024-03-26T14:20:21.643Z,21.76
2024-03-26T14:21:27.025Z,21.76
2024-03-26T14:22:32.430Z,21.76
2024-03-26T14:23:37.809Z,21.76
2024-03-26T14:24:43.198Z,21.77
2024-03-26T14:25:48.640Z,21.76
2024-03-26T14:26:54.024Z,21.75
2024-03-26T14:27:59.393Z,21.76
2024-03-26T14:29:04.893Z,21.76
2024-03-26T14:30:10.297Z,21.76
2024-03-26T14:31:15.719Z,21.75
2024-03-26T14:32:21.083Z,21.76
2024-03-26T14:33:26.463Z,21.76
2024-03-26T14:34:31.864Z,21.76
2024-03-26T14:35:39.452Z,21.76
2024-03-26T14:36:44.834Z,21.76
2024-03-26T14:37:50.295Z,21.76
2024-03-26T14:38:55.666Z,21.76
2024-03-26T14:40:01.107Z,21.76
2024-03-26T14:41:06.521Z,21.76
2024-03-26T14:42:11.993Z,21.77
2024-03-26T14:43:17.464Z,21.77
2024-03-26T14:44:22.813Z,21.77
2024-03-26T14:45:28.208Z,21.77
2024-03-26T14:46:33.652Z,21.77
2024-03-26T14:47:39.112Z,21.76
2024-03-26T14:48:44.496Z,21.76
2024-03-26T14:49:49.892Z,21.76
2024-03-26T14:50:55.373Z,21.77
2024-03-26T14:52:00.728Z,21.77
2024-03-26T14:53:06.091Z,21.77
2024-03-26T14:54:11.533Z,21.77
2024-03-26T14:55:16.971Z,21.78
2024-03-26T14:56:22.358Z,21.77
2024-03-26T14:57:27.740Z,21.77
2024-03-26T14:58:33.132Z,21.77
2024-03-26T14:59:38.562Z,21.76
2024-03-26T15:00:43.981Z,21.76
2024-03-26T15:01:49.510Z,21.76
2024-03-26T15:02:54.956Z,21.75
2024-03-26T15:04:00.374Z,21.75
2024-03-26T15:05:05.769Z,21.76
2024-03-26T15:06:11.184Z,21.75
2024-03-26T15:07:17.647Z,21.76
2024-03-26T15:08:23.006Z,21.76
2024-03-26T15:09:28.415Z,21.76
2024-03-26T15:10:33.829Z,21.76
2024-03-26T15:11:39.255Z,21.77
2024-03-26T15:12:44.685Z,21.76
2024-03-26T15:13:50.055Z,21.76
2024-03-26T15:14:55.469Z,21.75
2024-03-26T15:16:08.158Z,21.74
2024-03-26T15:17:20.607Z,21.74
2024-03-26T15:18:25.957Z,21.71
2024-03-26T15:19:31.347Z,21.75
2024-03-26T15:20:36.832Z,21.8
2024-03-26T15:21:42.216Z,21.87
2024-03-26T15:22:47.613Z,21.89
2024-03-26T15:23:53.009Z,21.83
2024-03-26T15:24:58.389Z,21.81
2024-03-26T15:26:06.035Z,21.79
2024-03-26T15:27:11.411Z,21.77
2024-03-26T15:28:19.299Z,21.75
2024-03-26T15:29:24.675Z,21.75
2024-03-26T15:30:30.051Z,21.74
2024-03-26T15:31:35.443Z,21.75
2024-03-26T15:32:40.862Z,21.77
2024-03-26T15:33:46.259Z,21.76
2024-03-26T15:34:51.708Z,21.76
2024-03-26T15:35:58.097Z,21.76
2024-03-26T15:37:03.540Z,21.76
2024-03-26T15:38:09.903Z,21.75
2024-03-26T15:39:21.316Z,21.73
2024-03-26T15:40:26.758Z,21.74
2024-03-26T15:41:32.163Z,21.74
2024-03-26T15:42:37.520Z,21.74
2024-03-26T15:43:42.886Z,21.74
2024-03-26T15:44:48.285Z,21.73
2024-03-26T15:45:53.672Z,21.74
2024-03-26T15:46:59.077Z,21.73
2024-03-26T15:48:04.483Z,21.72
2024-03-26T15:49:09.997Z,21.72
2024-03-26T15:50:18.096Z,21.72
2024-03-26T15:51:24.367Z,21.71
2024-03-26T15:52:29.773Z,21.71
2024-03-26T15:53:35.237Z,21.71
2024-03-26T15:54:40.714Z,21.71
2024-03-26T15:55:46.812Z,21.73
2024-03-26T15:56:56.634Z,21.74
2024-03-26T15:58:02.000Z,21.75
2024-03-26T15:59:07.401Z,21.74
2024-03-26T16:00:12.811Z,21.73
2024-03-26T16:01:18.246Z,21.73
2024-03-26T16:02:23.655Z,21.73
2024-03-26T16:03:29.042Z,21.73
2024-03-26T16:04:34.564Z,21.73
2024-03-26T16:05:39.978Z,21.72
2024-03-26T16:06:45.386Z,21.72
2024-03-26T16:07:50.781Z,21.72
2024-03-26T16:08:56.133Z,21.72
2024-03-26T16:10:10.658Z,21.72
2024-03-26T16:12:04.524Z,21.65
2024-03-26T16:13:09.896Z,21.61
2024-03-26T16:14:15.280Z,21.59
2024-03-26T16:15:20.646Z,21.58
2024-03-26T16:16:26.312Z,21.56
2024-03-26T16:17:31.860Z,21.58
2024-03-26T16:18:37.367Z,21.57
2024-03-26T16:19:42.733Z,21.58
2024-03-26T16:20:48.214Z,21.6
2024-03-26T16:21:53.632Z,21.62
2024-03-26T16:22:59.109Z,21.62
2024-03-26T16:24:04.639Z,21.62
2024-03-26T16:25:10.067Z,21.64
2024-03-26T16:26:15.477Z,21.64
2024-03-26T16:27:20.964Z,21.64
2024-03-26T16:28:26.448Z,21.63
2024-03-26T16:29:31.848Z,21.64
2024-03-26T16:30:37.232Z,21.61
2024-03-26T16:31:42.844Z,21.6
2024-03-26T16:32:48.317Z,21.59
2024-03-26T16:33:53.669Z,21.56
2024-03-26T16:34:59.073Z,21.52
2024-03-26T16:36:04.492Z,21.49
2024-03-26T16:37:09.848Z,21.49
2024-03-26T16:38:15.199Z,21.46
2024-03-26T16:39:20.593Z,21.42
2024-03-26T16:40:26.232Z,21.41
2024-03-26T16:41:32.635Z,21.42
2024-03-26T16:42:38.054Z,21.45
2024-03-26T16:43:46.399Z,21.46
2024-03-26T16:45:04.868Z,21.47
2024-03-26T16:46:10.264Z,21.48
2024-03-26T16:47:15.630Z,21.48
2024-03-26T16:48:21.049Z,21.48
2024-03-26T16:49:29.392Z,21.47
2024-03-26T16:50:34.857Z,21.45
2024-03-26T16:51:40.281Z,21.47
2024-03-26T16:52:46.162Z,21.47
2024-03-26T16:53:54.178Z,21.44
2024-03-26T16:55:00.585Z,21.44
2024-03-26T16:56:06.036Z,21.45
2024-03-26T16:57:11.405Z,21.45
2024-03-26T16:58:17.343Z,21.46
2024-03-26T16:59:24.634Z,21.48
2024-03-26T17:00:30.065Z,21.5
2024-03-26T17:01:35.489Z,21.51
2024-03-26T17:02:40.839Z,21.53
2024-03-26T17:03:46.295Z,21.53
2024-03-26T17:04:51.653Z,21.53
2024-03-26T17:05:57.037Z,21.53
2024-03-26T17:07:02.438Z,21.52